Sto Camellia — D7LH — position and weather

sailwx.info

Track history (hours):
 
Tides and Currents Weather Stations Pressure Air Temp Water Temp Dewpoint Dewpoint Depression Visibility Wind Speed Wind Dir Waves Ship Positions

Sto Camellia

Last reported at 2017-Aug-11 16:10 UTC. Time now 2017-Aug-17 15:39 UTC.
Position N 31°28' E 123°09'.

Length 121 m; draft 5.5 m.

Type: Ship (hazmat cat C). MMSI: 440036000.

Date/timePositionNaut miles runAvg speedWind from/ knotsBaromVisibWave heightAir tempDewpointWater temp
2017-Aug-11 16:10N 31°28' E 123°09'714.2
2017-Aug-11 15:42N 31°22' E 123°06'314.2
2017-Aug-11 15:30N 31°20' E 123°05'713.7
2017-Aug-11 15:00N 31°14' E 123°01'1313.5
2017-Aug-11 14:00N 31°00' E 122°58'1711.6
2017-Aug-11 12:31N 30°57' E 122°38'412.8
2017-Aug-11 12:12N 30°58' E 122°34'313.3
2017-Aug-11 12:00N 30°59' E 122°31'713.8
2017-Aug-11 11:30N 31°01' E 122°23'613.0
2017-Aug-11 11:00N 31°02' E 122°16'610.3
2017-Aug-11 10:27N 31°03' E 122°09'613.5
2017-Aug-11 10:00N 31°04' E 122°03'714.6
2017-Aug-11 09:30N 31°08' E 121°55'815.1
2017-Aug-11 09:00N 31°13' E 121°48'714.4
2017-Aug-11 08:30N 31°18' E 121°43'611.9
2017-Aug-11 08:00N 31°22' E 121°37'510.2
2017-Aug-11 07:30N 31°24' E 121°32'4 8.1
2017-Aug-11 07:00N 31°27' E 121°28'4 8.5
2017-Aug-11 06:30N 31°30' E 121°25'5 9.3
2017-Aug-11 06:00N 31°32' E 121°20'5 9.3
2017-Aug-11 05:30N 31°36' E 121°17'610.9
2017-Aug-11 05:00N 31°40' E 121°12'713.0
2017-Aug-11 04:28N 31°44' E 121°06'3211.8
2017-Aug-11 01:44N 32°01' E 120°33'513.5
2017-Aug-11 01:20N 32°02' E 120°27'3 8.3
2017-Aug-11 00:56N 31°58' E 120°27'0 0.0
2017-Aug-11 00:29N 31°58' E 120°27'0 0.0
2017-Aug-10 23:59N 31°58' E 120°27'0 0.0
2017-Aug-10 23:29N 31°58' E 120°27'0 0.0
2017-Aug-10 22:59N 31°58' E 120°27'0 0.0
2017-Aug-10 22:29N 31°58' E 120°27'0 0.0
2017-Aug-10 21:59N 31°58' E 120°27'0 0.0
2017-Aug-10 21:29N 31°58' E 120°27'0 0.0
2017-Aug-10 20:59N 31°58' E 120°27'0 0.0
2017-Aug-10 20:29N 31°58' E 120°27'0 0.0
2017-Aug-10 19:59N 31°58' E 120°27'0 0.0
2017-Aug-10 19:29N 31°58' E 120°27'0 0.0
2017-Aug-10 18:59N 31°58' E 120°27'0 0.0
2017-Aug-10 18:29N 31°58' E 120°27'0 0.0
2017-Aug-10 17:59N 31°58' E 120°27'0 0.0
2017-Aug-10 17:29N 31°58' E 120°27'0 0.0
2017-Aug-10 16:59N 31°58' E 120°27'0 0.0
2017-Aug-10 16:23N 31°58' E 120°27'0 0.0
2017-Aug-10 15:59N 31°58' E 120°27'0 0.0
2017-Aug-10 15:29N 31°58' E 120°27'0 0.0
2017-Aug-10 14:59N 31°58' E 120°27'0 0.0
2017-Aug-10 14:29N 31°58' E 120°27'0 0.0
2017-Aug-10 13:47N 31°58' E 120°27'0 0.0
2017-Aug-10 13:29N 31°58' E 120°27'0 0.0
2017-Aug-10 12:59N 31°58' E 120°27'0 0.0
2017-Aug-10 12:29N 31°58' E 120°27'0 0.0
2017-Aug-10 11:59N 31°58' E 120°27'0 0.0
2017-Aug-10 11:29N 31°58' E 120°27'0 0.0
2017-Aug-10 10:53N 31°58' E 120°27'0 0.0
2017-Aug-10 10:29N 31°58' E 120°27'0 0.0
2017-Aug-10 09:59N 31°58' E 120°27'0 0.0
2017-Aug-10 09:29N 31°58' E 120°27'0 0.0
2017-Aug-10 08:59N 31°58' E 120°27'0 0.0
2017-Aug-10 08:29N 31°58' E 120°27'0 0.0
2017-Aug-10 07:47N 31°58' E 120°27'0 0.0
2017-Aug-10 07:29N 31°58' E 120°27'0 0.0
2017-Aug-10 06:59N 31°58' E 120°27'0 0.0
2017-Aug-10 06:29N 31°58' E 120°27'0 0.0
2017-Aug-10 05:59N 31°58' E 120°27'0 0.0
2017-Aug-10 05:29N 31°58' E 120°27'1 1.4
2017-Aug-10 05:01N 31°59' E 120°27'3 6.6
2017-Aug-10 04:30N 32°02' E 120°28'3 6.7
2017-Aug-10 03:59N 32°02' E 120°32'0 0.1
2017-Aug-10 03:30N 32°02' E 120°32'0 0.0
2017-Aug-10 03:00N 32°02' E 120°32'0 0.0
2017-Aug-10 01:48N 32°02' E 120°32'0 0.0
2017-Aug-10 01:00N 32°02' E 120°32'0 0.0
2017-Aug-10 00:18N 32°02' E 120°32'0 0.0
2017-Aug-09 23:30N 32°02' E 120°32'0 0.0
2017-Aug-09 22:06N 32°02' E 120°32'0 0.1
2017-Aug-09 21:54N 32°02' E 120°32'0 0.1
2017-Aug-09 21:24N 32°02' E 120°32'0 0.0
2017-Aug-09 19:24N 32°02' E 120°32'0 0.1
2017-Aug-09 19:00N 32°02' E 120°32'0 0.0
2017-Aug-09 18:24N 32°02' E 120°32'0 0.0
2017-Aug-09 18:00N 32°02' E 120°32'0 0.0
2017-Aug-09 15:45N 32°02' E 120°32'0 0.0
2017-Aug-09 15:30N 32°02' E 120°32'0 0.0
2017-Aug-09 14:48N 32°02' E 120°32'0 0.0
2017-Aug-09 14:27N 32°02' E 120°32'0 0.0
2017-Aug-09 14:00N 32°02' E 120°32'0 0.0
2017-Aug-09 13:30N 32°02' E 120°32'0 0.0
2017-Aug-09 13:00N 32°02' E 120°32'0 0.0
2017-Aug-09 12:24N 32°02' E 120°32'0 0.2
2017-Aug-09 11:04N 32°02' E 120°32'0 4.0
2017-Aug-09 11:00N 32°02' E 120°32'5 9.0
2017-Aug-09 10:27N 32°02' E 120°27'511.5
2017-Aug-09 10:00N 31°59' E 120°21'611.9
2017-Aug-09 09:30N 31°56' E 120°15'610.6
2017-Aug-09 08:56N 31°56' E 120°08'2 1.5
2017-Aug-09 07:39N 31°57' E 120°06'0 0.0
2017-Aug-09 07:14N 31°57' E 120°06'0 0.0
2017-Aug-09 06:44N 31°57' E 120°06'0 0.0
2017-Aug-09 06:14N 31°57' E 120°06'0 0.0
2017-Aug-09 05:03N 31°57' E 120°06'0 0.0
2017-Aug-09 04:33N 31°57' E 120°06'0 0.1
2017-Aug-09 04:26N 31°57' E 120°06'0 0.0
2017-Aug-08 23:32N 31°57' E 120°06'0 0.0
2017-Aug-08 23:26N 31°57' E 120°06'0 0.0
2017-Aug-08 22:38N 31°57' E 120°06'0 0.0
2017-Aug-08 22:26N 31°57' E 120°06'0 0.0
2017-Aug-08 21:38N 31°57' E 120°06'0 0.0
2017-Aug-08 21:26N 31°57' E 120°06'0 0.0
2017-Aug-08 20:38N 31°57' E 120°06'0 0.0
2017-Aug-08 20:20N 31°57' E 120°06'0 0.0
2017-Aug-08 19:45N 31°57' E 120°06'0 0.0
2017-Aug-08 19:20N 31°57' E 120°06'0 0.0
2017-Aug-08 17:14N 31°57' E 120°06'0 0.0
2017-Aug-08 16:56N 31°57' E 120°06'0 0.0
2017-Aug-08 16:09N 31°57' E 120°06'0 0.0
2017-Aug-08 14:33N 31°57' E 120°06'0 0.0
2017-Aug-08 14:15N 31°57' E 120°06'0 0.0
2017-Aug-08 13:27N 31°57' E 120°06'0 0.0
2017-Aug-08 12:50N 31°57' E 120°06'0 0.0
2017-Aug-08 10:57N 31°57' E 120°06'0 0.0
2017-Aug-08 10:30N 31°57' E 120°06'3 5.1
2017-Aug-08 10:00N 31°56' E 120°09'510.5
2017-Aug-08 09:30N 31°56' E 120°15'511.2
2017-Aug-08 09:01N 31°59' E 120°21'611.3
2017-Aug-08 08:30N 32°02' E 120°27'811.5
2017-Aug-08 07:51N 32°00' E 120°35'2610.3
2017-Aug-08 05:21N 31°47' E 121°01'713.3
2017-Aug-08 04:49N 31°43' E 121°08'412.9
2017-Aug-08 04:30N 31°40' E 121°12'712.9
2017-Aug-08 04:00N 31°36' E 121°17'712.5
2017-Aug-08 03:27N 31°31' E 121°23'510.3
2017-Aug-08 03:00N 31°28' E 121°27'5 9.7
2017-Aug-08 02:31N 31°25' E 121°32'610.9
2017-Aug-08 02:00N 31°22' E 121°37'611.5
2017-Aug-08 01:30N 31°19' E 121°43'510.1
2017-Aug-08 01:00N 31°17' E 121°48'5 9.6
2017-Aug-08 00:30N 31°16' E 121°54'510.0
2017-Aug-08 00:00N 31°15' E 121°60'5 9.5
2017-Aug-07 23:30N 31°14' E 122°05'4 8.7
2017-Aug-07 23:00N 31°12' E 122°09'4 8.6
2017-Aug-07 22:30N 31°09' E 122°13'5 9.3
2017-Aug-07 22:00N 31°07' E 122°18'510.6
2017-Aug-07 21:30N 31°06' E 122°24'5 9.6
2017-Aug-07 20:59N 31°07' E 122°30'4 8.6
2017-Aug-07 20:28N 31°07' E 122°35'3 5.2
2017-Aug-07 19:59N 31°10' E 122°36'0 0.1
2017-Aug-07 19:28N 31°10' E 122°36'0 0.1
2017-Aug-07 18:01N 31°10' E 122°36'0 0.0
2017-Aug-07 14:34N 31°10' E 122°36'0 0.0
2017-Aug-07 14:19N 31°10' E 122°36'0 0.0
2017-Aug-07 13:49N 31°10' E 122°36'0 0.0
2017-Aug-07 10:52N 31°10' E 122°36'0 0.1
2017-Aug-07 10:07N 31°10' E 122°36'0 0.0
2017-Aug-07 09:58N 31°10' E 122°36'0 0.0
2017-Aug-07 09:30N 31°10' E 122°36'0 0.1
2017-Aug-07 09:00N 31°10' E 122°36'0 0.0
2017-Aug-07 08:30N 31°10' E 122°36'0 0.1
2017-Aug-07 07:59N 31°10' E 122°36'0 0.1
2017-Aug-07 07:27N 31°10' E 122°36'0 0.1
2017-Aug-07 07:00N 31°10' E 122°36'0 0.0
2017-Aug-07 06:30N 31°10' E 122°36'0 0.4
2017-Aug-07 06:00N 31°10' E 122°36'4 7.7
2017-Aug-07 05:30N 31°07' E 122°39'6 8.7
2017-Aug-07 04:49N 31°07' E 122°46'1111.8
2017-Aug-07 03:54N 31°07' E 122°59'2011.2
2017-Aug-07 02:07N 31°19' E 123°18'411.3
2017-Aug-07 01:48N 31°21' E 123°21'411.6
2017-Aug-07 01:28N 31°24' E 123°24'  
Track history (hours):
 
Tides and Currents Weather Stations Pressure Air Temp Water Temp Dewpoint Dewpoint Depression Visibility Wind Speed Wind Dir Waves Ship Positions

Sto Camellia

Last reported at 2017-Aug-11 16:10 UTC. Time now 2017-Aug-17 15:39 UTC.
Position N 31°28' E 123°09'.

Length 121 m; draft 5.5 m.

Type: Ship (hazmat cat C). MMSI: 440036000.

Date/timePositionNaut miles runAvg speedWind from/ knotsBaromVisibWave heightAir tempDewpointWater temp
2017-Aug-11 16:10N 31°28' E 123°09'714.2
2017-Aug-11 15:42N 31°22' E 123°06'314.2
2017-Aug-11 15:30N 31°20' E 123°05'713.7
2017-Aug-11 15:00N 31°14' E 123°01'1313.5
2017-Aug-11 14:00N 31°00' E 122°58'1711.6
2017-Aug-11 12:31N 30°57' E 122°38'412.8
2017-Aug-11 12:12N 30°58' E 122°34'313.3
2017-Aug-11 12:00N 30°59' E 122°31'713.8
2017-Aug-11 11:30N 31°01' E 122°23'613.0
2017-Aug-11 11:00N 31°02' E 122°16'610.3
2017-Aug-11 10:27N 31°03' E 122°09'613.5
2017-Aug-11 10:00N 31°04' E 122°03'714.6
2017-Aug-11 09:30N 31°08' E 121°55'815.1
2017-Aug-11 09:00N 31°13' E 121°48'714.4
2017-Aug-11 08:30N 31°18' E 121°43'611.9
2017-Aug-11 08:00N 31°22' E 121°37'510.2
2017-Aug-11 07:30N 31°24' E 121°32'4 8.1
2017-Aug-11 07:00N 31°27' E 121°28'4 8.5
2017-Aug-11 06:30N 31°30' E 121°25'5 9.3
2017-Aug-11 06:00N 31°32' E 121°20'5 9.3
2017-Aug-11 05:30N 31°36' E 121°17'610.9
2017-Aug-11 05:00N 31°40' E 121°12'713.0
2017-Aug-11 04:28N 31°44' E 121°06'3211.8
2017-Aug-11 01:44N 32°01' E 120°33'513.5
2017-Aug-11 01:20N 32°02' E 120°27'3 8.3
2017-Aug-11 00:56N 31°58' E 120°27'0 0.0
2017-Aug-11 00:29N 31°58' E 120°27'0 0.0
2017-Aug-10 23:59N 31°58' E 120°27'0 0.0
2017-Aug-10 23:29N 31°58' E 120°27'0 0.0
2017-Aug-10 22:59N 31°58' E 120°27'0 0.0
2017-Aug-10 22:29N 31°58' E 120°27'0 0.0
2017-Aug-10 21:59N 31°58' E 120°27'0 0.0
2017-Aug-10 21:29N 31°58' E 120°27'0 0.0
2017-Aug-10 20:59N 31°58' E 120°27'0 0.0
2017-Aug-10 20:29N 31°58' E 120°27'0 0.0
2017-Aug-10 19:59N 31°58' E 120°27'0 0.0
2017-Aug-10 19:29N 31°58' E 120°27'0 0.0
2017-Aug-10 18:59N 31°58' E 120°27'0 0.0
2017-Aug-10 18:29N 31°58' E 120°27'0 0.0
2017-Aug-10 17:59N 31°58' E 120°27'0 0.0
2017-Aug-10 17:29N 31°58' E 120°27'0 0.0
2017-Aug-10 16:59N 31°58' E 120°27'0 0.0
2017-Aug-10 16:23N 31°58' E 120°27'0 0.0
2017-Aug-10 15:59N 31°58' E 120°27'0 0.0
2017-Aug-10 15:29N 31°58' E 120°27'0 0.0
2017-Aug-10 14:59N 31°58' E 120°27'0 0.0
2017-Aug-10 14:29N 31°58' E 120°27'0 0.0
2017-Aug-10 13:47N 31°58' E 120°27'0 0.0
2017-Aug-10 13:29N 31°58' E 120°27'0 0.0
2017-Aug-10 12:59N 31°58' E 120°27'0 0.0
2017-Aug-10 12:29N 31°58' E 120°27'0 0.0
2017-Aug-10 11:59N 31°58' E 120°27'0 0.0
2017-Aug-10 11:29N 31°58' E 120°27'0 0.0
2017-Aug-10 10:53N 31°58' E 120°27'0 0.0
2017-Aug-10 10:29N 31°58' E 120°27'0 0.0
2017-Aug-10 09:59N 31°58' E 120°27'0 0.0
2017-Aug-10 09:29N 31°58' E 120°27'0 0.0
2017-Aug-10 08:59N 31°58' E 120°27'0 0.0
2017-Aug-10 08:29N 31°58' E 120°27'0 0.0
2017-Aug-10 07:47N 31°58' E 120°27'0 0.0
2017-Aug-10 07:29N 31°58' E 120°27'0 0.0
2017-Aug-10 06:59N 31°58' E 120°27'0 0.0
2017-Aug-10 06:29N 31°58' E 120°27'0 0.0
2017-Aug-10 05:59N 31°58' E 120°27'0 0.0
2017-Aug-10 05:29N 31°58' E 120°27'1 1.4
2017-Aug-10 05:01N 31°59' E 120°27'3 6.6
2017-Aug-10 04:30N 32°02' E 120°28'3 6.7
2017-Aug-10 03:59N 32°02' E 120°32'0 0.1
2017-Aug-10 03:30N 32°02' E 120°32'0 0.0
2017-Aug-10 03:00N 32°02' E 120°32'0 0.0
2017-Aug-10 01:48N 32°02' E 120°32'0 0.0
2017-Aug-10 01:00N 32°02' E 120°32'0 0.0
2017-Aug-10 00:18N 32°02' E 120°32'0 0.0
2017-Aug-09 23:30N 32°02' E 120°32'0 0.0
2017-Aug-09 22:06N 32°02' E 120°32'0 0.1
2017-Aug-09 21:54N 32°02' E 120°32'0 0.1
2017-Aug-09 21:24N 32°02' E 120°32'0 0.0
2017-Aug-09 19:24N 32°02' E 120°32'0 0.1
2017-Aug-09 19:00N 32°02' E 120°32'0 0.0
2017-Aug-09 18:24N 32°02' E 120°32'0 0.0
2017-Aug-09 18:00N 32°02' E 120°32'0 0.0
2017-Aug-09 15:45N 32°02' E 120°32'0 0.0
2017-Aug-09 15:30N 32°02' E 120°32'0 0.0
2017-Aug-09 14:48N 32°02' E 120°32'0 0.0
2017-Aug-09 14:27N 32°02' E 120°32'0 0.0
2017-Aug-09 14:00N 32°02' E 120°32'0 0.0
2017-Aug-09 13:30N 32°02' E 120°32'0 0.0
2017-Aug-09 13:00N 32°02' E 120°32'0 0.0
2017-Aug-09 12:24N 32°02' E 120°32'0 0.2
2017-Aug-09 11:04N 32°02' E 120°32'0 4.0
2017-Aug-09 11:00N 32°02' E 120°32'5 9.0
2017-Aug-09 10:27N 32°02' E 120°27'511.5
2017-Aug-09 10:00N 31°59' E 120°21'611.9
2017-Aug-09 09:30N 31°56' E 120°15'610.6
2017-Aug-09 08:56N 31°56' E 120°08'2 1.5
2017-Aug-09 07:39N 31°57' E 120°06'0 0.0
2017-Aug-09 07:14N 31°57' E 120°06'0 0.0
2017-Aug-09 06:44N 31°57' E 120°06'0 0.0
2017-Aug-09 06:14N 31°57' E 120°06'0 0.0
2017-Aug-09 05:03N 31°57' E 120°06'0 0.0
2017-Aug-09 04:33N 31°57' E 120°06'0 0.1
2017-Aug-09 04:26N 31°57' E 120°06'0 0.0
2017-Aug-08 23:32N 31°57' E 120°06'0 0.0
2017-Aug-08 23:26N 31°57' E 120°06'0 0.0
2017-Aug-08 22:38N 31°57' E 120°06'0 0.0
2017-Aug-08 22:26N 31°57' E 120°06'0 0.0
2017-Aug-08 21:38N 31°57' E 120°06'0 0.0
2017-Aug-08 21:26N 31°57' E 120°06'0 0.0
2017-Aug-08 20:38N 31°57' E 120°06'0 0.0
2017-Aug-08 20:20N 31°57' E 120°06'0 0.0
2017-Aug-08 19:45N 31°57' E 120°06'0 0.0
2017-Aug-08 19:20N 31°57' E 120°06'0 0.0
2017-Aug-08 17:14N 31°57' E 120°06'0 0.0
2017-Aug-08 16:56N 31°57' E 120°06'0 0.0
2017-Aug-08 16:09N 31°57' E 120°06'0 0.0
2017-Aug-08 14:33N 31°57' E 120°06'0 0.0
2017-Aug-08 14:15N 31°57' E 120°06'0 0.0
2017-Aug-08 13:27N 31°57' E 120°06'0 0.0
2017-Aug-08 12:50N 31°57' E 120°06'0 0.0
2017-Aug-08 10:57N 31°57' E 120°06'0 0.0
2017-Aug-08 10:30N 31°57' E 120°06'3 5.1
2017-Aug-08 10:00N 31°56' E 120°09'510.5
2017-Aug-08 09:30N 31°56' E 120°15'511.2
2017-Aug-08 09:01N 31°59' E 120°21'611.3
2017-Aug-08 08:30N 32°02' E 120°27'811.5
2017-Aug-08 07:51N 32°00' E 120°35'2610.3
2017-Aug-08 05:21N 31°47' E 121°01'713.3
2017-Aug-08 04:49N 31°43' E 121°08'412.9
2017-Aug-08 04:30N 31°40' E 121°12'712.9
2017-Aug-08 04:00N 31°36' E 121°17'712.5
2017-Aug-08 03:27N 31°31' E 121°23'510.3
2017-Aug-08 03:00N 31°28' E 121°27'5 9.7
2017-Aug-08 02:31N 31°25' E 121°32'610.9
2017-Aug-08 02:00N 31°22' E 121°37'611.5
2017-Aug-08 01:30N 31°19' E 121°43'510.1
2017-Aug-08 01:00N 31°17' E 121°48'5 9.6
2017-Aug-08 00:30N 31°16' E 121°54'510.0
2017-Aug-08 00:00N 31°15' E 121°60'5 9.5
2017-Aug-07 23:30N 31°14' E 122°05'4 8.7
2017-Aug-07 23:00N 31°12' E 122°09'4 8.6
2017-Aug-07 22:30N 31°09' E 122°13'5 9.3
2017-Aug-07 22:00N 31°07' E 122°18'510.6
2017-Aug-07 21:30N 31°06' E 122°24'5 9.6
2017-Aug-07 20:59N 31°07' E 122°30'4 8.6
2017-Aug-07 20:28N 31°07' E 122°35'3 5.2
2017-Aug-07 19:59N 31°10' E 122°36'0 0.1
2017-Aug-07 19:28N 31°10' E 122°36'0 0.1
2017-Aug-07 18:01N 31°10' E 122°36'0 0.0
2017-Aug-07 14:34N 31°10' E 122°36'0 0.0
2017-Aug-07 14:19N 31°10' E 122°36'0 0.0
2017-Aug-07 13:49N 31°10' E 122°36'0 0.0
2017-Aug-07 10:52N 31°10' E 122°36'0 0.1
2017-Aug-07 10:07N 31°10' E 122°36'0 0.0
2017-Aug-07 09:58N 31°10' E 122°36'0 0.0
2017-Aug-07 09:30N 31°10' E 122°36'0 0.1
2017-Aug-07 09:00N 31°10' E 122°36'0 0.0
2017-Aug-07 08:30N 31°10' E 122°36'0 0.1
2017-Aug-07 07:59N 31°10' E 122°36'0 0.1
2017-Aug-07 07:27N 31°10' E 122°36'0 0.1
2017-Aug-07 07:00N 31°10' E 122°36'0 0.0
2017-Aug-07 06:30N 31°10' E 122°36'0 0.4
2017-Aug-07 06:00N 31°10' E 122°36'4 7.7
2017-Aug-07 05:30N 31°07' E 122°39'6 8.7
2017-Aug-07 04:49N 31°07' E 122°46'1111.8
2017-Aug-07 03:54N 31°07' E 122°59'2011.2
2017-Aug-07 02:07N 31°19' E 123°18'411.3
2017-Aug-07 01:48N 31°21' E 123°21'411.6
2017-Aug-07 01:28N 31°24' E 123°24'  

Dump ship's entire track history